Tropical Cyclones
[Index]
Main Index Home Page Stock Weather Photos Extreme Storms Discussion Storm News and Storm Chasing Reports Tropical Cyclones / Hurricanes / Typhoons Weather Data and Links Wild Fires / Bushfires Weather Observation Techniques Weather Picture Catalogue Tornado Pictures and Reports Stock Video Footage and DVDs for sale
Season 1966-1967 Tropical Cyclone GLENDA Track Map
Season 1966-1967 Summaries: [BoM-AU] [JTWC-AU] [JTWC-SIO] [JTWC-SPAC] [JTWC-SH]
<<- Previous TC | JTWC 1966-1967 Season | Next TC ->>

click for intensity scale information  Lat/long Grid: Show Hide

 Date Labels: Show Hide

Joint Typhoon Warning Centre Cyclone Data

Name: GLENDA
Number: 641 / 6726

26 Mar 1967 12:00 UTC to 06 Apr 1967 18:00 UTC

    date/time    lat    long     hPa   cat  kts
1967-03-26 12   11.7   155.6                              
1967-03-26 18   11.4   155.8                              
1967-03-27 00   11.2   156.0                              
1967-03-27 06   10.9   156.3                              
1967-03-27 12   10.7   156.7                              
1967-03-27 18   10.4   157.0                              
1967-03-28 00   10.2   157.4                              
1967-03-28 06   10.0   158.3                              
1967-03-28 12   10.3   159.3                              
1967-03-28 18   11.0   160.2                              
1967-03-29 00   12.0   160.8                              
1967-03-29 06   13.0   161.0                              
1967-03-29 12   14.0   160.7                              
1967-03-29 18   15.0   160.4                              
1967-03-30 00   16.0   159.9                              
1967-03-30 06   16.9   159.4                              
1967-03-30 12   17.9   158.9                              
1967-03-30 18   19.0   158.6                              
1967-03-31 00   19.9   158.2                              
1967-03-31 06   20.3   158.0                              
1967-03-31 12   20.7   157.9                              
1967-03-31 18   21.2   158.1                              
1967-04-01 00   21.7   158.4                              
1967-04-01 06   22.0   158.7                              
1967-04-01 12   22.4   159.0                              
1967-04-01 18   22.7   159.2                              
1967-04-02 00   22.9   159.3                              
1967-04-02 06   23.2   159.5                              
1967-04-02 12   23.4   159.7                              
1967-04-02 18   23.7   159.8                              
1967-04-03 00   24.1   159.9                              
1967-04-03 06   24.6   159.9                              
1967-04-03 12   25.2   159.8                              
1967-04-03 18   25.7   159.4                              
1967-04-04 00   26.2   158.9                              
1967-04-04 06   26.8   158.2                              
1967-04-04 12   27.5   158.0                              
1967-04-04 18   28.7   158.2                              
1967-04-05 00   29.6   158.3                              
1967-04-05 06   30.1   158.5                              
1967-04-05 12   30.6   158.6                              
1967-04-05 18   31.0   158.8                              
1967-04-06 00   31.5   159.0                              
1967-04-06 06   32.1   159.3                              
1967-04-06 12   32.8   159.5                              
1967-04-06 18   33.4   159.8                              
Winds are 1-min average.

Tropical cyclone tracks developed by Michael Bath using data from the Joint Typhoon Warning Centre Best Tracks and Google Maps.


[Australian Severe Weather index] [Copyright Notice] [Email Contacts] [Search This Site] [Privacy Policy]
Document: tropical_cyclone_glenda.htm Updated: 18 September 2016